createdAt,value
2018-06-08T00:00:09.033Z,18.60
2018-06-08T00:02:37.321Z,19.73
2018-06-08T00:05:05.537Z,19.80
2018-06-08T00:07:33.753Z,20.20
2018-06-08T00:10:01.966Z,19.70
2018-06-08T00:12:30.188Z,20.40
2018-06-08T00:14:58.401Z,20.10
2018-06-08T00:17:26.629Z,20.43
2018-06-08T00:19:54.857Z,20.57
2018-06-08T00:22:23.060Z,21.50
2018-06-08T00:24:51.272Z,21.50
2018-06-08T00:27:19.482Z,19.90
2018-06-08T00:29:47.694Z,19.77
2018-06-08T00:32:15.917Z,19.57
2018-06-08T00:34:44.137Z,21.27
2018-06-08T00:37:12.359Z,20.30
2018-06-08T00:39:40.569Z,20.37
2018-06-08T00:42:08.784Z,22.13
2018-06-08T00:44:37.000Z,21.07
2018-06-08T00:47:05.229Z,21.83
2018-06-08T00:49:33.496Z,21.63
2018-06-08T00:52:01.742Z,20.07
2018-06-08T00:54:29.977Z,21.87
2018-06-08T00:57:05.910Z,19.07
2018-06-08T00:59:34.152Z,18.53
2018-06-08T01:02:02.424Z,19.73
2018-06-08T01:04:30.636Z,21.07
2018-06-08T01:06:58.888Z,20.93
2018-06-08T01:09:28.224Z,19.27
2018-06-08T01:11:56.468Z,19.90
2018-06-08T01:14:32.896Z,18.13
2018-06-08T01:17:01.357Z,18.57
2018-06-08T01:19:32.317Z,18.80
2018-06-08T01:22:00.817Z,19.93
2018-06-08T01:24:29.073Z,19.63
2018-06-08T01:26:57.521Z,20.63
2018-06-08T01:29:25.809Z,20.30
2018-06-08T01:31:54.049Z,22.40
2018-06-08T01:34:22.302Z,20.47
2018-06-08T01:36:50.536Z,20.43
2018-06-08T01:39:18.773Z,20.67
2018-06-08T01:41:47.006Z,19.83
2018-06-08T01:44:15.248Z,21.33
2018-06-08T01:46:43.485Z,20.93
2018-06-08T01:50:16.589Z,20.50
2018-06-08T01:52:44.833Z,19.73
2018-06-08T01:55:13.073Z,22.33
2018-06-08T01:57:41.329Z,20.97
2018-06-08T02:00:09.577Z,21.90
2018-06-08T02:02:37.825Z,20.33
2018-06-08T02:05:06.229Z,20.03
2018-06-08T02:07:34.474Z,19.83
2018-06-08T02:10:02.741Z,18.83
2018-06-08T02:12:30.997Z,17.77
2018-06-08T02:14:59.249Z,18.33
2018-06-08T02:17:27.497Z,17.43
2018-06-08T02:19:55.760Z,17.67
2018-06-08T02:22:24.004Z,18.27
2018-06-08T02:24:52.425Z,17.83
2018-06-08T02:27:20.672Z,18.27
2018-06-08T02:29:48.913Z,18.00
2018-06-08T02:32:17.157Z,20.10
2018-06-08T02:34:45.497Z,21.10
2018-06-08T02:37:31.183Z,22.60
2018-06-08T02:39:59.416Z,22.97
2018-06-08T02:42:27.649Z,23.17
2018-06-08T02:44:55.889Z,22.40
2018-06-08T02:47:24.129Z,22.87
2018-06-08T02:49:52.355Z,22.20
2018-06-08T02:52:20.589Z,20.70
2018-06-08T02:54:48.812Z,22.80
2018-06-08T02:57:17.052Z,23.17
2018-06-08T02:59:45.296Z,21.77
2018-06-08T03:02:13.528Z,20.73
2018-06-08T03:04:41.752Z,22.23
2018-06-08T03:07:10.289Z,21.70
2018-06-08T03:09:38.518Z,22.30
2018-06-08T03:12:06.747Z,21.73
2018-06-08T03:14:34.976Z,21.73
2018-06-08T03:17:03.209Z,22.50
2018-06-08T03:19:31.445Z,23.37
2018-06-08T03:21:59.677Z,22.87
2018-06-08T03:24:28.021Z,21.63
2018-06-08T03:26:56.248Z,23.07
2018-06-08T03:29:24.481Z,21.40
2018-06-08T03:31:52.511Z,22.83
2018-06-08T03:34:20.749Z,22.70
2018-06-08T03:36:49.021Z,21.30
2018-06-08T03:39:17.006Z,23.17
2018-06-08T03:41:45.221Z,22.77
2018-06-08T03:44:13.452Z,21.50
2018-06-08T03:46:41.688Z,20.13
2018-06-08T03:49:09.905Z,20.97
2018-06-08T03:51:38.439Z,20.93
2018-06-08T03:54:06.666Z,21.93
2018-06-08T03:56:34.884Z,21.90
2018-06-08T03:59:03.136Z,22.57
2018-06-08T04:01:31.111Z,25.40
2018-06-08T04:03:59.376Z,24.37
2018-06-08T04:06:27.694Z,25.60
2018-06-08T04:08:55.938Z,25.07
2018-06-08T04:11:24.192Z,25.17
2018-06-08T04:13:52.457Z,25.23
2018-06-08T04:16:20.701Z,24.47
2018-06-08T04:18:48.936Z,23.83
2018-06-08T04:21:17.168Z,22.97
2018-06-08T04:23:45.399Z,23.23
2018-06-08T04:26:13.797Z,22.57
2018-06-08T04:28:42.029Z,21.10
2018-06-08T04:31:10.248Z,22.20
2018-06-08T04:33:38.463Z,20.63
2018-06-08T04:36:06.696Z,21.10
2018-06-08T04:38:34.970Z,20.80
2018-06-08T04:41:03.196Z,19.43
2018-06-08T04:43:31.420Z,20.60
2018-06-08T04:45:59.635Z,19.73
2018-06-08T04:48:27.991Z,20.10
2018-06-08T04:50:56.257Z,19.40
2018-06-08T04:53:24.478Z,18.93
2018-06-08T04:55:53.025Z,18.53
2018-06-08T04:58:21.239Z,18.50
2018-06-08T05:00:50.201Z,17.17
2018-06-08T05:03:19.287Z,17.70
2018-06-08T05:05:47.706Z,15.90
2018-06-08T05:08:16.078Z,17.33
2018-06-08T05:10:45.639Z,17.70
2018-06-08T05:13:13.876Z,16.53
2018-06-08T05:15:42.107Z,16.27
2018-06-08T05:18:10.402Z,17.27
2018-06-08T05:20:38.632Z,16.90
2018-06-08T05:23:06.876Z,16.40
2018-06-08T05:25:35.097Z,15.50
2018-06-08T05:28:03.314Z,17.70
2018-06-08T05:30:31.537Z,17.50
2018-06-08T05:32:59.751Z,15.37
2018-06-08T05:35:28.044Z,16.50
2018-06-08T05:37:56.299Z,15.60
2018-06-08T05:40:24.532Z,17.33
2018-06-08T05:42:52.757Z,16.77
2018-06-08T05:45:20.971Z,17.20
2018-06-08T05:47:50.036Z,16.60
2018-06-08T05:50:18.264Z,17.07
2018-06-08T05:52:46.480Z,16.83
2018-06-08T05:55:14.706Z,16.23
2018-06-08T05:57:42.928Z,17.23
2018-06-08T06:00:11.136Z,16.70
2018-06-08T06:02:39.338Z,16.30
2018-06-08T06:05:07.537Z,16.83
2018-06-08T06:07:35.744Z,15.37
2018-06-08T06:10:04.756Z,14.40
2018-06-08T06:12:32.965Z,16.83
2018-06-08T06:15:01.209Z,15.50
2018-06-08T06:17:29.393Z,14.37
2018-06-08T06:19:57.615Z,16.03
2018-06-08T06:22:25.824Z,15.27
2018-06-08T06:24:54.024Z,15.43
2018-06-08T06:27:22.230Z,15.33
2018-06-08T06:29:50.435Z,15.23
2018-06-08T06:32:18.660Z,16.43
2018-06-08T06:34:46.848Z,14.97
2018-06-08T06:37:15.041Z,13.87
2018-06-08T06:39:43.263Z,15.50
2018-06-08T06:42:11.450Z,14.33
2018-06-08T06:44:39.647Z,15.33
2018-06-08T06:47:07.841Z,15.17
2018-06-08T06:49:36.043Z,14.50
2018-06-08T06:52:04.250Z,14.20
2018-06-08T06:54:32.444Z,13.80
2018-06-08T06:57:00.641Z,13.90
2018-06-08T06:59:28.855Z,13.20
2018-06-08T07:01:57.082Z,13.60
2018-06-08T07:04:25.050Z,13.07
2018-06-08T07:06:53.285Z,13.57
2018-06-08T07:09:21.525Z,13.73
2018-06-08T07:11:49.739Z,11.65
2018-06-08T07:14:17.953Z,13.35
2018-06-08T07:16:46.188Z,12.85
2018-06-08T07:19:14.406Z,12.88
2018-06-08T07:21:53.304Z,13.50
2018-06-08T07:24:21.521Z,13.30
2018-06-08T07:26:49.742Z,12.30
2018-06-08T07:29:17.969Z,12.80
2018-06-08T07:31:46.282Z,12.45
2018-06-08T07:34:14.411Z,12.58
2018-06-08T07:36:42.631Z,12.03
2018-06-08T07:39:10.848Z,12.20
2018-06-08T07:41:39.065Z,12.47
2018-06-08T07:44:07.279Z,12.10
2018-06-08T07:46:35.502Z,12.05
2018-06-08T07:49:03.725Z,11.85
2018-06-08T07:51:31.928Z,13.22
2018-06-08T07:54:00.420Z,12.28
2018-06-08T07:56:28.633Z,12.75
2018-06-08T07:58:56.924Z,12.40
2018-06-08T08:01:25.124Z,12.68
2018-06-08T08:03:53.423Z,12.43
2018-06-08T08:06:21.770Z,12.25
2018-06-08T08:08:49.998Z,12.60
2018-06-08T08:11:18.251Z,13.05
2018-06-08T08:13:46.464Z,12.40
2018-06-08T08:16:14.676Z,13.50
2018-06-08T08:18:42.890Z,14.07
2018-06-08T08:21:11.104Z,13.20
2018-06-08T08:23:39.344Z,13.45
2018-06-08T08:26:07.577Z,13.30
2018-06-08T08:28:35.820Z,12.98
2018-06-08T08:31:04.040Z,14.28
2018-06-08T08:33:32.250Z,13.25
2018-06-08T08:36:00.452Z,10.60
2018-06-08T08:38:28.680Z,11.73
2018-06-08T08:40:56.919Z,12.40
2018-06-08T08:43:25.224Z,12.65
2018-06-08T08:45:53.443Z,14.05
2018-06-08T08:48:21.665Z,12.95
2018-06-08T08:50:49.627Z,12.20
2018-06-08T08:53:17.836Z,12.70
2018-06-08T08:55:46.057Z,13.03
2018-06-08T08:58:17.156Z,13.15
2018-06-08T09:00:45.369Z,11.20
2018-06-08T09:03:13.592Z,12.85
2018-06-08T09:05:41.820Z,10.35
2018-06-08T09:08:09.788Z,13.08
2018-06-08T09:10:38.006Z,11.35
2018-06-08T09:13:06.244Z,11.45
2018-06-08T09:15:34.463Z,11.22
2018-06-08T09:18:02.684Z,11.45
2018-06-08T09:20:30.891Z,11.78
2018-06-08T09:22:59.099Z,11.70
2018-06-08T09:25:27.379Z,12.70
2018-06-08T09:27:55.586Z,11.65
2018-06-08T09:30:23.802Z,12.07
2018-06-08T09:32:52.014Z,11.30
2018-06-08T09:35:20.230Z,11.57
2018-06-08T09:37:48.438Z,11.85
2018-06-08T09:40:16.648Z,12.15
2018-06-08T09:42:44.872Z,11.60
2018-06-08T09:45:13.097Z,10.55
2018-06-08T09:47:41.312Z,11.63
2018-06-08T09:50:09.870Z,10.23
2018-06-08T09:52:38.083Z,11.15
2018-06-08T09:55:06.318Z,12.25
2018-06-08T09:57:34.528Z,12.73
2018-06-08T10:00:02.749Z,13.10
2018-06-08T10:02:30.964Z,11.88
2018-06-08T10:04:59.200Z,10.58
2018-06-08T10:07:27.516Z,10.78
2018-06-08T10:09:55.778Z,10.70
2018-06-08T10:12:23.993Z,11.12
2018-06-08T10:14:52.224Z,10.72
2018-06-08T10:17:20.437Z,9.95
2018-06-08T10:19:48.652Z,10.10
2018-06-08T10:22:16.860Z,8.55
2018-06-08T10:24:47.979Z,8.60
2018-06-08T10:27:16.181Z,7.87
2018-06-08T10:29:44.398Z,7.53
2018-06-08T10:32:12.607Z,7.67
2018-06-08T10:34:40.822Z,8.18
2018-06-08T10:37:09.037Z,8.48
2018-06-08T10:39:37.244Z,8.35
2018-06-08T10:42:05.448Z,8.50
2018-06-08T10:44:33.652Z,8.33
2018-06-08T10:47:01.865Z,8.95
2018-06-08T10:49:30.071Z,8.50
2018-06-08T10:51:58.288Z,9.10
2018-06-08T10:54:26.522Z,9.88
2018-06-08T10:56:54.749Z,9.50
2018-06-08T10:59:22.965Z,9.18
2018-06-08T11:01:51.183Z,9.65
2018-06-08T11:04:19.402Z,9.00
2018-06-08T11:06:47.630Z,9.33
2018-06-08T11:09:15.844Z,9.83
2018-06-08T11:11:44.065Z,9.35
2018-06-08T11:14:13.313Z,8.85
2018-06-08T11:16:41.519Z,8.78
2018-06-08T11:19:09.729Z,8.38
2018-06-08T11:21:37.951Z,7.92
2018-06-08T11:24:06.168Z,9.73
2018-06-08T11:26:34.384Z,9.73
2018-06-08T11:29:02.604Z,9.28
2018-06-08T11:31:30.829Z,8.95
2018-06-08T11:33:59.044Z,8.78
2018-06-08T11:36:27.261Z,9.55
2018-06-08T11:38:55.497Z,9.95
2018-06-08T11:41:23.712Z,9.18
2018-06-08T11:43:51.928Z,9.45
2018-06-08T11:46:20.158Z,9.65
2018-06-08T11:48:48.386Z,8.58
2018-06-08T11:51:16.646Z,8.95
2018-06-08T11:53:44.657Z,8.15
2018-06-08T11:56:12.915Z,8.85
2018-06-08T11:58:41.207Z,8.35
2018-06-08T12:01:09.486Z,8.88
2018-06-08T12:03:37.745Z,8.55
2018-06-08T12:06:09.942Z,8.83
2018-06-08T12:08:38.204Z,8.40
2018-06-08T12:11:06.466Z,8.78
2018-06-08T12:13:34.721Z,8.45
2018-06-08T12:16:02.983Z,8.05
2018-06-08T12:18:31.264Z,8.00
2018-06-08T12:20:59.535Z,7.95
2018-06-08T12:23:27.795Z,7.65
2018-06-08T12:25:56.055Z,7.65
2018-06-08T12:28:24.307Z,5.37
2018-06-08T12:30:52.570Z,5.90
2018-06-08T12:33:20.822Z,5.60
2018-06-08T12:35:49.087Z,5.40
2018-06-08T12:38:17.355Z,5.72
2018-06-08T12:40:45.609Z,6.37
2018-06-08T12:43:13.862Z,5.90
2018-06-08T12:45:42.118Z,5.92
2018-06-08T12:48:10.384Z,5.75
2018-06-08T12:50:38.652Z,5.97
2018-06-08T12:53:06.922Z,6.03
2018-06-08T12:55:35.237Z,6.22
2018-06-08T12:58:03.486Z,6.03
2018-06-08T13:00:31.755Z,5.72
2018-06-08T13:03:00.025Z,6.25
2018-06-08T13:05:28.382Z,6.00
2018-06-08T13:07:56.645Z,6.58
2018-06-08T13:10:24.903Z,5.97
2018-06-08T13:12:53.171Z,6.58
2018-06-08T13:15:22.434Z,6.03
2018-06-08T13:17:52.764Z,6.95
2018-06-08T13:20:21.418Z,6.75
2018-06-08T13:22:49.675Z,6.40
2018-06-08T13:25:19.074Z,6.58
2018-06-08T13:27:47.493Z,6.65
2018-06-08T13:30:15.775Z,6.55
2018-06-08T13:32:44.030Z,6.25
2018-06-08T13:35:12.993Z,6.47
2018-06-08T13:37:41.399Z,6.65
2018-06-08T13:40:09.713Z,6.95
2018-06-08T13:42:37.994Z,6.90
2018-06-08T13:45:06.250Z,6.45
2018-06-08T13:47:34.515Z,6.70
2018-06-08T13:50:02.793Z,6.60
2018-06-08T13:52:31.117Z,6.62
2018-06-08T13:54:59.361Z,6.40
2018-06-08T13:57:27.615Z,6.25
2018-06-08T13:59:55.899Z,6.60
2018-06-08T14:02:24.158Z,6.50
2018-06-08T14:04:52.639Z,7.00
2018-06-08T14:07:20.903Z,7.17
2018-06-08T14:09:49.169Z,7.00
2018-06-08T14:12:17.458Z,7.45
2018-06-08T14:14:45.468Z,7.50
2018-06-08T14:17:13.722Z,6.62
2018-06-08T14:19:41.998Z,7.00
2018-06-08T14:22:10.258Z,7.62
2018-06-08T14:24:38.539Z,7.67
2018-06-08T14:27:06.813Z,7.37
2018-06-08T14:29:35.082Z,7.90
2018-06-08T14:32:03.734Z,7.92
2018-06-08T14:34:32.112Z,7.33
2018-06-08T14:37:00.431Z,7.55
2018-06-08T14:39:28.696Z,6.95
2018-06-08T14:41:56.967Z,7.67
2018-06-08T14:44:25.243Z,7.75
2018-06-08T14:46:53.578Z,8.00
2018-06-08T14:49:21.899Z,7.55
2018-06-08T14:51:50.171Z,7.03
2018-06-08T14:54:18.431Z,7.15
2018-06-08T14:56:46.947Z,7.58
2018-06-08T14:59:15.263Z,7.17
2018-06-08T15:01:43.541Z,7.42
2018-06-08T15:04:12.494Z,7.80
2018-06-08T15:06:40.866Z,7.17
2018-06-08T15:09:09.294Z,7.58
2018-06-08T15:11:37.766Z,8.30
2018-06-08T15:14:06.268Z,9.83
2018-06-08T15:16:34.592Z,9.18
2018-06-08T15:19:02.992Z,9.95
2018-06-08T15:21:31.327Z,10.80
2018-06-08T15:23:59.595Z,10.60
2018-06-08T15:26:28.135Z,10.30
2018-06-08T15:28:56.407Z,10.63
2018-06-08T15:31:24.838Z,9.90
2018-06-08T15:33:53.447Z,10.17
2018-06-08T15:36:21.879Z,11.35
2018-06-08T15:38:50.824Z,11.53
2018-06-08T15:41:19.194Z,10.43
2018-06-08T15:43:47.533Z,10.70
2018-06-08T15:46:15.765Z,10.97
2018-06-08T15:48:45.024Z,11.30
2018-06-08T15:51:13.480Z,10.93
2018-06-08T15:53:41.821Z,10.93
2018-06-08T15:56:10.130Z,10.43
2018-06-08T15:58:38.426Z,10.63
2018-06-08T16:01:07.937Z,11.33
2018-06-08T16:03:37.431Z,11.43
2018-06-08T16:06:05.757Z,10.93
2018-06-08T16:08:34.626Z,11.13
2018-06-08T16:11:02.914Z,10.93
2018-06-08T16:13:31.230Z,11.67
2018-06-08T16:18:50.856Z,12.50
2018-06-08T16:21:19.151Z,12.27
2018-06-08T16:23:47.423Z,13.03
2018-06-08T16:26:15.694Z,12.03
2018-06-08T16:28:43.954Z,12.80
2018-06-08T16:31:12.234Z,13.40
2018-06-08T16:33:40.524Z,13.10
2018-06-08T16:36:08.832Z,13.53
2018-06-08T16:38:37.051Z,13.57
2018-06-08T16:41:05.326Z,13.87
2018-06-08T16:43:33.333Z,14.33
2018-06-08T16:46:01.593Z,14.07
2018-06-08T16:48:29.855Z,13.53
2018-06-08T16:50:58.136Z,14.17
2018-06-08T16:53:26.150Z,13.67
2018-06-08T16:55:54.429Z,13.57
2018-06-08T16:58:22.724Z,14.30
2018-06-08T17:00:50.721Z,14.57
2018-06-08T17:03:18.721Z,14.47
2018-06-08T17:05:46.980Z,15.00
2018-06-08T17:08:15.237Z,14.60
2018-06-08T17:10:43.560Z,13.50
2018-06-08T17:13:11.805Z,14.17
2018-06-08T17:15:40.055Z,14.30
2018-06-08T17:18:08.353Z,14.23
2018-06-08T17:20:36.561Z,15.00
2018-06-08T17:23:04.811Z,14.33
2018-06-08T17:25:33.059Z,14.93
2018-06-08T17:28:01.588Z,15.30
2018-06-08T17:30:29.843Z,14.67
2018-06-08T17:32:58.081Z,14.50
2018-06-08T17:35:26.322Z,14.60
2018-06-08T17:40:45.219Z,14.00
2018-06-08T17:43:13.496Z,13.57
2018-06-08T17:45:41.848Z,15.00
2018-06-08T17:48:10.070Z,14.90
2018-06-08T17:50:38.819Z,13.97
2018-06-08T17:53:07.106Z,14.10
2018-06-08T17:55:35.648Z,14.67
2018-06-08T17:58:04.075Z,15.00
2018-06-08T18:00:32.402Z,13.80
2018-06-08T18:03:00.724Z,14.10
2018-06-08T18:05:29.035Z,15.27
2018-06-08T18:07:57.306Z,14.63
2018-06-08T18:10:25.574Z,14.80
2018-06-08T18:12:53.840Z,14.87
2018-06-08T18:15:22.182Z,15.17
2018-06-08T18:17:50.566Z,14.57
2018-06-08T18:20:18.754Z,14.23
2018-06-08T18:22:47.047Z,14.43
2018-06-08T18:25:15.338Z,14.30
2018-06-08T18:27:43.827Z,13.87
2018-06-08T18:30:12.817Z,13.97
2018-06-08T18:32:41.095Z,14.90
2018-06-08T18:35:09.499Z,14.60
2018-06-08T18:37:37.892Z,15.70
2018-06-08T18:40:06.202Z,15.60
2018-06-08T18:42:34.495Z,16.40
2018-06-08T18:45:02.805Z,14.80
2018-06-08T18:47:31.091Z,16.43
2018-06-08T18:49:59.387Z,15.70
2018-06-08T18:52:27.711Z,16.00
2018-06-08T18:54:56.136Z,16.50
2018-06-08T18:57:26.305Z,15.77
2018-06-08T18:59:54.329Z,15.20
2018-06-08T19:02:22.670Z,15.00
2018-06-08T19:04:50.973Z,15.83
2018-06-08T19:07:19.355Z,14.97
2018-06-08T19:09:47.650Z,16.70
2018-06-08T19:12:15.927Z,15.57
2018-06-08T19:14:44.211Z,15.17
2018-06-08T19:17:12.484Z,15.97
2018-06-08T19:19:40.764Z,15.90
2018-06-08T19:22:09.071Z,15.63
2018-06-08T19:24:37.355Z,16.27
2018-06-08T19:27:06.049Z,15.67
2018-06-08T19:29:34.342Z,15.70
2018-06-08T19:32:03.460Z,16.13
2018-06-08T19:34:31.850Z,15.67
2018-06-08T19:37:00.143Z,14.67
2018-06-08T19:39:28.448Z,15.23
2018-06-08T19:41:56.790Z,14.90
2018-06-08T19:44:24.920Z,14.57
2018-06-08T19:46:53.233Z,15.03
2018-06-08T19:49:21.554Z,14.20
2018-06-08T19:51:50.704Z,15.10
2018-06-08T19:54:18.885Z,16.47
2018-06-08T19:56:47.234Z,15.57
2018-06-08T19:59:15.760Z,15.67
2018-06-08T20:01:44.070Z,16.17
2018-06-08T20:04:12.932Z,16.97
2018-06-08T20:06:41.213Z,16.07
2018-06-08T20:09:09.824Z,15.70
2018-06-08T20:11:38.138Z,16.37
2018-06-08T20:14:06.722Z,16.67
2018-06-08T20:16:35.012Z,17.40
2018-06-08T20:19:04.709Z,16.87
2018-06-08T20:21:33.099Z,17.27
2018-06-08T20:24:01.924Z,17.50
2018-06-08T20:26:30.945Z,18.10
2018-06-08T20:28:59.486Z,17.10
2018-06-08T20:31:30.264Z,18.63
2018-06-08T20:33:59.577Z,17.77
2018-06-08T20:36:28.090Z,18.13
2018-06-08T20:38:56.479Z,18.10
2018-06-08T20:41:25.562Z,18.53
2018-06-08T20:43:54.327Z,19.70
2018-06-08T20:46:22.822Z,19.33
2018-06-08T20:48:51.219Z,19.20
2018-06-08T20:51:19.613Z,19.63
2018-06-08T20:53:49.026Z,18.87
2018-06-08T20:56:17.353Z,19.23
2018-06-08T20:58:45.704Z,18.67
2018-06-08T21:01:14.155Z,18.23
2018-06-08T21:03:42.173Z,17.37
2018-06-08T21:06:10.433Z,17.50
2018-06-08T21:08:38.767Z,17.77
2018-06-08T21:11:07.060Z,18.60
2018-06-08T21:13:35.330Z,17.53
2018-06-08T21:16:03.611Z,17.87
2018-06-08T21:18:31.908Z,17.63
2018-06-08T21:21:00.174Z,16.97
2018-06-08T21:23:28.467Z,17.20
2018-06-08T21:25:56.751Z,17.20
2018-06-08T21:28:25.015Z,17.30
2018-06-08T21:30:53.296Z,17.10
2018-06-08T21:33:21.581Z,18.30
2018-06-08T21:35:50.664Z,17.03
2018-06-08T21:38:18.954Z,15.83
2018-06-08T21:40:47.222Z,16.80
2018-06-08T21:43:15.507Z,17.57
2018-06-08T21:45:43.888Z,17.10
2018-06-08T21:48:12.159Z,18.17
2018-06-08T21:50:40.456Z,17.03
2018-06-08T21:53:08.754Z,18.57
2018-06-08T21:55:37.050Z,17.90
2018-06-08T21:58:05.315Z,18.97
2018-06-08T22:00:33.660Z,17.43
2018-06-08T22:03:01.933Z,17.73
2018-06-08T22:05:30.213Z,17.33
2018-06-08T22:07:58.486Z,18.37
2018-06-08T22:10:26.766Z,17.97
2018-06-08T22:12:55.039Z,17.93
2018-06-08T22:15:23.303Z,17.33
2018-06-08T22:17:51.783Z,17.63
2018-06-08T22:20:20.058Z,17.17
2018-06-08T22:22:48.354Z,18.33
2018-06-08T22:25:16.639Z,18.37
2018-06-08T22:27:44.919Z,17.20
2018-06-08T22:30:13.182Z,18.80
2018-06-08T22:32:41.462Z,18.77
2018-06-08T22:35:09.725Z,18.43
2018-06-08T22:37:37.740Z,18.80
2018-06-08T22:40:06.230Z,18.13
2018-06-08T22:42:34.494Z,17.50
2018-06-08T22:45:02.770Z,18.13
2018-06-08T22:47:31.037Z,18.97
2018-06-08T22:49:59.306Z,19.17
2018-06-08T22:52:27.583Z,18.80
2018-06-08T22:54:55.958Z,19.00
2018-06-08T22:57:24.229Z,18.47
2018-06-08T22:59:52.518Z,18.77
2018-06-08T23:02:21.004Z,18.10
2018-06-08T23:04:49.280Z,19.27
2018-06-08T23:07:17.552Z,17.83
2018-06-08T23:09:45.820Z,18.53
2018-06-08T23:12:14.075Z,17.20
2018-06-08T23:14:42.338Z,17.40
2018-06-08T23:17:10.598Z,16.70
2018-06-08T23:19:38.867Z,17.63
2018-06-08T23:22:07.137Z,19.10
2018-06-08T23:24:35.415Z,19.20
2018-06-08T23:27:03.678Z,19.17
2018-06-08T23:29:31.978Z,19.07
2018-06-08T23:32:00.237Z,18.27
2018-06-08T23:34:28.490Z,18.57
2018-06-08T23:36:56.748Z,18.77
2018-06-08T23:39:24.997Z,18.27
2018-06-08T23:41:53.258Z,19.33
2018-06-08T23:44:21.540Z,18.13
2018-06-08T23:46:49.798Z,18.60
2018-06-08T23:49:18.057Z,17.73
2018-06-08T23:51:46.315Z,17.70
2018-06-08T23:54:14.641Z,18.57
2018-06-08T23:56:42.886Z,18.47
2018-06-08T23:59:11.145Z,17.80
